Kamari — D5DX7 — position and weather

sailwx.info

Track history (hours):
 
Tides and Currents Weather Stations Pressure Air Temp Water Temp Dewpoint Dewpoint Depression Visibility Wind Speed Wind Dir Waves Ship Positions

Kamari

Last reported at 2017-Sep-14 15:19 UTC. Time now 2017-Sep-20 00:10 UTC.
Position N 31°47' E 031°55'.

Length 270 m.

Type: Ship. MMSI: 636015996.

Date/timePositionNaut miles runAvg speedWind from/ knotsBaromVisibWave heightAir tempDewpointWater temp
2017-Sep-14 15:19N 31°47' E 031°55'413.0
2017-Sep-14 15:00N 31°50' E 031°52'713.1
2017-Sep-14 14:30N 31°55' E 031°47'713.1
2017-Sep-14 14:00N 31°59' E 031°42'16113.2
2017-Sep-14 01:46N 33°60' E 029°33'413.1
2017-Sep-14 01:27N 34°03' E 029°30'613.0
2017-Sep-14 01:00N 34°07' E 029°25'612.9
2017-Sep-14 00:30N 34°12' E 029°20'25313.0
2017-Sep-13 05:02N 37°22' E 025°55'012.4
2017-Sep-13 05:00N 37°23' E 025°55'612.0
2017-Sep-13 04:30N 37°28' E 025°51'612.5
2017-Sep-13 04:00N 37°34' E 025°50'712.8
2017-Sep-13 03:30N 37°41' E 025°49'224 5.6
2017-Sep-11 11:31N 40°51' E 028°20'0 9.0
2017-Sep-11 11:29N 40°51' E 028°21'5 9.1
2017-Sep-11 10:59N 40°52' E 028°27'4 9.1
2017-Sep-11 10:30N 40°53' E 028°32'18 8.9
2017-Sep-11 08:28N 40°57' E 028°56'2 3.5
2017-Sep-11 07:54N 40°58' E 028°58'1 2.3
2017-Sep-11 07:20N 40°59' E 028°59'14 8.7
2017-Sep-11 05:42N 41°12' E 029°07'1 6.7
2017-Sep-11 05:30N 41°13' E 029°07'5 9.0
2017-Sep-11 04:59N 41°18' E 029°08'4 8.1
2017-Sep-11 04:30N 41°22' E 029°07'1 1.1
2017-Sep-11 04:00N 41°22' E 029°08'0 0.5
2017-Sep-11 03:30N 41°22' E 029°08'0 0.4
2017-Sep-11 03:01N 41°22' E 029°09'0 0.4
2017-Sep-11 02:31N 41°22' E 029°09'1 0.5
2017-Sep-11 00:32N 41°23' E 029°10'0 0.6
2017-Sep-11 00:23N 41°23' E 029°10'0 0.5
2017-Sep-11 00:00N 41°23' E 029°10'0 0.5
2017-Sep-10 23:30N 41°23' E 029°11'0 0.5
2017-Sep-10 23:00N 41°23' E 029°11'0 0.4
2017-Sep-10 22:28N 41°24' E 029°11'0 0.4
2017-Sep-10 22:00N 41°24' E 029°11'0 0.4
2017-Sep-10 21:30N 41°24' E 029°11'0 0.4
2017-Sep-10 21:00N 41°24' E 029°11'0 0.6
2017-Sep-10 20:30N 41°24' E 029°11'0 0.8
2017-Sep-10 20:00N 41°25' E 029°11'1 2.3
2017-Sep-10 19:30N 41°25' E 029°13'3 6.8
2017-Sep-10 19:00N 41°26' E 029°17'510.3
2017-Sep-10 18:30N 41°27' E 029°24'510.4
2017-Sep-10 18:00N 41°29' E 029°30'510.2
2017-Sep-10 17:30N 41°31' E 029°36'510.2
2017-Sep-10 17:00N 41°34' E 029°42'510.1
2017-Sep-10 16:30N 41°37' E 029°48'510.3
2017-Sep-10 16:00N 41°39' E 029°53'510.3
2017-Sep-10 15:30N 41°42' E 029°60'510.4
2017-Sep-10 15:00N 41°44' E 030°06'1110.7
2017-Sep-10 14:00N 41°50' E 030°18'611.0
2017-Sep-10 13:30N 41°54' E 030°24'611.2
2017-Sep-10 13:00N 41°57' E 030°30'611.2
2017-Sep-10 12:30N 41°60' E 030°36'611.3
2017-Sep-10 12:00N 42°03' E 030°43'611.3
2017-Sep-10 11:30N 42°06' E 030°49'4510.8
2017-Sep-10 07:18N 42°29' E 031°42'  
2017-Sep-06 22:51N 45°06' E 036°38'0 0.0
2017-Sep-05 14:15N 45°06' E 036°38'1 5.7
2017-Sep-05 14:00N 45°05' E 036°37'  
Track history (hours):
 
Tides and Currents Weather Stations Pressure Air Temp Water Temp Dewpoint Dewpoint Depression Visibility Wind Speed Wind Dir Waves Ship Positions

Kamari

Last reported at 2017-Sep-14 15:19 UTC. Time now 2017-Sep-20 00:10 UTC.
Position N 31°47' E 031°55'.

Length 270 m.

Type: Ship. MMSI: 636015996.

Date/timePositionNaut miles runAvg speedWind from/ knotsBaromVisibWave heightAir tempDewpointWater temp
2017-Sep-14 15:19N 31°47' E 031°55'413.0
2017-Sep-14 15:00N 31°50' E 031°52'713.1
2017-Sep-14 14:30N 31°55' E 031°47'713.1
2017-Sep-14 14:00N 31°59' E 031°42'16113.2
2017-Sep-14 01:46N 33°60' E 029°33'413.1
2017-Sep-14 01:27N 34°03' E 029°30'613.0
2017-Sep-14 01:00N 34°07' E 029°25'612.9
2017-Sep-14 00:30N 34°12' E 029°20'25313.0
2017-Sep-13 05:02N 37°22' E 025°55'012.4
2017-Sep-13 05:00N 37°23' E 025°55'612.0
2017-Sep-13 04:30N 37°28' E 025°51'612.5
2017-Sep-13 04:00N 37°34' E 025°50'712.8
2017-Sep-13 03:30N 37°41' E 025°49'224 5.6
2017-Sep-11 11:31N 40°51' E 028°20'0 9.0
2017-Sep-11 11:29N 40°51' E 028°21'5 9.1
2017-Sep-11 10:59N 40°52' E 028°27'4 9.1
2017-Sep-11 10:30N 40°53' E 028°32'18 8.9
2017-Sep-11 08:28N 40°57' E 028°56'2 3.5
2017-Sep-11 07:54N 40°58' E 028°58'1 2.3
2017-Sep-11 07:20N 40°59' E 028°59'14 8.7
2017-Sep-11 05:42N 41°12' E 029°07'1 6.7
2017-Sep-11 05:30N 41°13' E 029°07'5 9.0
2017-Sep-11 04:59N 41°18' E 029°08'4 8.1
2017-Sep-11 04:30N 41°22' E 029°07'1 1.1
2017-Sep-11 04:00N 41°22' E 029°08'0 0.5
2017-Sep-11 03:30N 41°22' E 029°08'0 0.4
2017-Sep-11 03:01N 41°22' E 029°09'0 0.4
2017-Sep-11 02:31N 41°22' E 029°09'1 0.5
2017-Sep-11 00:32N 41°23' E 029°10'0 0.6
2017-Sep-11 00:23N 41°23' E 029°10'0 0.5
2017-Sep-11 00:00N 41°23' E 029°10'0 0.5
2017-Sep-10 23:30N 41°23' E 029°11'0 0.5
2017-Sep-10 23:00N 41°23' E 029°11'0 0.4
2017-Sep-10 22:28N 41°24' E 029°11'0 0.4
2017-Sep-10 22:00N 41°24' E 029°11'0 0.4
2017-Sep-10 21:30N 41°24' E 029°11'0 0.4
2017-Sep-10 21:00N 41°24' E 029°11'0 0.6
2017-Sep-10 20:30N 41°24' E 029°11'0 0.8
2017-Sep-10 20:00N 41°25' E 029°11'1 2.3
2017-Sep-10 19:30N 41°25' E 029°13'3 6.8
2017-Sep-10 19:00N 41°26' E 029°17'510.3
2017-Sep-10 18:30N 41°27' E 029°24'510.4
2017-Sep-10 18:00N 41°29' E 029°30'510.2
2017-Sep-10 17:30N 41°31' E 029°36'510.2
2017-Sep-10 17:00N 41°34' E 029°42'510.1
2017-Sep-10 16:30N 41°37' E 029°48'510.3
2017-Sep-10 16:00N 41°39' E 029°53'510.3
2017-Sep-10 15:30N 41°42' E 029°60'510.4
2017-Sep-10 15:00N 41°44' E 030°06'1110.7
2017-Sep-10 14:00N 41°50' E 030°18'611.0
2017-Sep-10 13:30N 41°54' E 030°24'611.2
2017-Sep-10 13:00N 41°57' E 030°30'611.2
2017-Sep-10 12:30N 41°60' E 030°36'611.3
2017-Sep-10 12:00N 42°03' E 030°43'611.3
2017-Sep-10 11:30N 42°06' E 030°49'4510.8
2017-Sep-10 07:18N 42°29' E 031°42'  
2017-Sep-06 22:51N 45°06' E 036°38'0 0.0
2017-Sep-05 14:15N 45°06' E 036°38'1 5.7
2017-Sep-05 14:00N 45°05' E 036°37'  

Dump ship's entire track history